createdAt,value
2023-05-19T00:02:06.140Z,6.87
2023-05-19T00:04:35.564Z,6.97
2023-05-19T00:07:05.694Z,7.33
2023-05-19T00:09:34.644Z,6.70
2023-05-19T00:12:03.403Z,7.00
2023-05-19T00:14:32.172Z,6.30
2023-05-19T00:17:03.223Z,7.30
2023-05-19T00:19:32.457Z,6.93
2023-05-19T00:22:00.861Z,7.07
2023-05-19T00:24:29.665Z,6.60
2023-05-19T00:26:58.090Z,7.30
2023-05-19T00:29:26.579Z,6.70
2023-05-19T00:31:54.918Z,6.77
2023-05-19T00:34:24.664Z,6.23
2023-05-19T00:36:52.910Z,7.13
2023-05-19T00:39:21.447Z,6.97
2023-05-19T00:41:49.870Z,6.93
2023-05-19T00:44:18.181Z,8.17
2023-05-19T00:46:46.762Z,7.20
2023-05-19T00:49:15.415Z,7.40
2023-05-19T00:51:45.121Z,6.70
2023-05-19T00:54:13.546Z,5.87
2023-05-19T00:56:42.426Z,7.17
2023-05-19T00:59:10.803Z,6.83
2023-05-19T01:01:39.164Z,7.20
2023-05-19T01:04:10.159Z,6.23
2023-05-19T01:06:39.276Z,7.27
2023-05-19T01:09:09.301Z,6.70
2023-05-19T01:11:37.763Z,6.90
2023-05-19T01:14:06.328Z,6.60
2023-05-19T01:16:39.734Z,7.30
2023-05-19T01:19:32.466Z,6.50
2023-05-19T01:22:46.519Z,6.33
2023-05-19T01:25:49.409Z,6.67
2023-05-19T01:28:53.270Z,6.40
2023-05-19T01:31:25.218Z,6.33
2023-05-19T01:33:55.324Z,7.20
2023-05-19T01:36:24.913Z,6.73
2023-05-19T01:38:55.368Z,7.30
2023-05-19T01:41:24.425Z,8.40
2023-05-19T01:43:54.362Z,8.57
2023-05-19T01:46:25.650Z,8.33
2023-05-19T01:48:54.756Z,8.73
2023-05-19T01:51:23.272Z,8.93
2023-05-19T01:53:51.641Z,9.17
2023-05-19T01:56:39.856Z,9.33
2023-05-19T01:59:18.757Z,10.03
2023-05-19T02:01:54.649Z,9.70
2023-05-19T02:04:39.355Z,11.10
2023-05-19T02:07:23.090Z,10.57
2023-05-19T02:09:57.397Z,9.97
2023-05-19T02:12:30.085Z,10.57
2023-05-19T02:15:05.113Z,10.90
2023-05-19T02:17:40.350Z,11.10
2023-05-19T02:20:10.202Z,10.53
2023-05-19T02:22:38.719Z,10.60
2023-05-19T02:25:07.786Z,10.13
2023-05-19T02:27:36.523Z,11.53
2023-05-19T02:30:05.146Z,10.23
2023-05-19T02:32:35.198Z,10.47
2023-05-19T02:35:04.142Z,10.80
2023-05-19T02:37:32.699Z,12.50
2023-05-19T02:40:01.222Z,10.87
2023-05-19T02:42:29.576Z,10.60
2023-05-19T02:44:57.850Z,11.57
2023-05-19T02:47:26.176Z,10.80
2023-05-19T02:49:55.972Z,11.10
2023-05-19T02:52:24.263Z,10.73
2023-05-19T02:54:52.625Z,10.57
2023-05-19T02:57:21.014Z,11.77
2023-05-19T02:59:49.342Z,10.07
2023-05-19T03:02:17.637Z,10.83
2023-05-19T03:04:45.898Z,11.20
2023-05-19T03:07:15.681Z,10.70
2023-05-19T03:09:44.111Z,12.07
2023-05-19T03:12:12.390Z,10.50
2023-05-19T03:14:41.261Z,10.40
2023-05-19T03:17:10.426Z,9.93
2023-05-19T03:19:38.783Z,11.13
2023-05-19T03:22:07.030Z,11.00
2023-05-19T03:24:36.822Z,10.07
2023-05-19T03:27:06.542Z,10.83
2023-05-19T03:29:34.866Z,10.73
2023-05-19T03:32:03.219Z,10.57
2023-05-19T03:34:32.782Z,9.00
2023-05-19T03:37:01.215Z,10.80
2023-05-19T03:39:29.479Z,9.93
2023-05-19T03:41:59.245Z,9.50
2023-05-19T03:44:27.523Z,9.67
2023-05-19T03:46:55.892Z,9.90
2023-05-19T03:49:24.153Z,10.40
2023-05-19T03:51:52.469Z,9.33
2023-05-19T03:54:22.565Z,9.70
2023-05-19T03:56:51.182Z,10.10
2023-05-19T03:59:21.015Z,10.10
2023-05-19T04:01:49.308Z,10.70
2023-05-19T04:04:17.824Z,9.80
2023-05-19T04:06:46.107Z,9.63
2023-05-19T04:09:16.395Z,11.40
2023-05-19T04:11:44.880Z,9.83
2023-05-19T04:14:13.242Z,10.03
2023-05-19T04:16:43.464Z,10.00
2023-05-19T04:19:11.781Z,9.67
2023-05-19T04:21:40.088Z,9.33
2023-05-19T04:24:08.824Z,9.30
2023-05-19T04:26:38.492Z,10.97
2023-05-19T04:29:06.812Z,9.00
2023-05-19T04:31:36.111Z,8.40
2023-05-19T04:34:05.993Z,8.77
2023-05-19T04:36:34.306Z,9.27
2023-05-19T04:39:06.444Z,8.77
2023-05-19T04:41:35.159Z,8.77
2023-05-19T04:44:03.581Z,9.23
2023-05-19T04:46:32.422Z,9.30
2023-05-19T04:49:01.402Z,8.57
2023-05-19T04:51:31.537Z,8.90
2023-05-19T04:54:00.207Z,9.70
2023-05-19T04:56:29.046Z,9.57
2023-05-19T04:58:57.381Z,9.10
2023-05-19T05:01:26.385Z,9.47
2023-05-19T05:03:58.869Z,10.47
2023-05-19T05:06:28.753Z,10.10
2023-05-19T05:08:58.788Z,8.27
2023-05-19T05:11:27.544Z,9.87
2023-05-19T05:13:58.304Z,8.63
2023-05-19T05:16:27.900Z,9.30
2023-05-19T05:18:57.601Z,9.00
2023-05-19T05:21:28.995Z,9.17
2023-05-19T05:23:59.758Z,9.17
2023-05-19T05:26:31.858Z,9.40
2023-05-19T05:29:00.186Z,8.80
2023-05-19T05:31:28.834Z,9.70
2023-05-19T05:33:57.389Z,9.43
2023-05-19T05:36:25.705Z,9.00
2023-05-19T05:38:53.950Z,8.70
2023-05-19T05:41:23.785Z,8.40
2023-05-19T05:43:52.086Z,8.90
2023-05-19T05:46:20.412Z,9.30
2023-05-19T05:48:49.393Z,8.57
2023-05-19T05:51:18.276Z,8.10
2023-05-19T05:53:52.408Z,8.33
2023-05-19T05:56:21.807Z,9.03
2023-05-19T05:58:52.119Z,8.30
2023-05-19T06:01:21.042Z,8.50
2023-05-19T06:03:49.463Z,8.00
2023-05-19T06:06:17.842Z,8.47
2023-05-19T06:08:46.260Z,8.27
2023-05-19T06:11:14.813Z,7.70
2023-05-19T06:13:43.194Z,8.77
2023-05-19T06:16:12.890Z,7.93
2023-05-19T06:18:41.457Z,8.33
2023-05-19T06:21:10.569Z,8.13
2023-05-19T06:23:38.873Z,8.07
2023-05-19T06:26:07.228Z,9.10
2023-05-19T06:28:35.833Z,9.10
2023-05-19T06:31:04.127Z,7.70
2023-05-19T06:33:33.821Z,8.47
2023-05-19T06:36:02.272Z,9.20
2023-05-19T06:38:31.628Z,8.83
2023-05-19T06:40:59.927Z,8.77
2023-05-19T06:43:28.866Z,8.67
2023-05-19T06:45:57.295Z,10.03
2023-05-19T06:48:25.745Z,8.93
2023-05-19T06:50:56.145Z,9.40
2023-05-19T06:53:24.579Z,9.20
2023-05-19T06:55:59.570Z,8.70
2023-05-19T06:58:28.712Z,9.13
2023-05-19T07:00:57.765Z,9.10
2023-05-19T07:03:26.173Z,9.77
2023-05-19T07:05:56.438Z,10.10
2023-05-19T07:08:24.810Z,9.10
2023-05-19T07:10:53.082Z,9.60
2023-05-19T07:13:21.389Z,9.43
2023-05-19T07:15:50.220Z,9.00
2023-05-19T07:18:18.484Z,9.13
2023-05-19T07:20:46.792Z,10.37
2023-05-19T07:23:17.501Z,10.17
2023-05-19T07:25:45.884Z,9.33
2023-05-19T07:28:14.180Z,9.67
2023-05-19T07:30:42.575Z,10.00
2023-05-19T07:33:12.146Z,9.83
2023-05-19T07:35:40.986Z,10.10
2023-05-19T07:38:09.291Z,11.07
2023-05-19T07:40:39.370Z,10.10
2023-05-19T07:43:08.048Z,10.33
2023-05-19T07:45:36.438Z,10.47
2023-05-19T07:48:05.284Z,10.50
2023-05-19T07:50:34.506Z,11.43
2023-05-19T07:53:02.964Z,11.17
2023-05-19T07:55:31.396Z,10.70
2023-05-19T07:58:01.130Z,11.83
2023-05-19T08:00:29.675Z,11.73
2023-05-19T08:02:58.328Z,11.27
2023-05-19T08:05:26.940Z,12.30
2023-05-19T08:07:55.226Z,11.10
2023-05-19T08:10:23.500Z,11.30
2023-05-19T08:12:51.900Z,12.70
2023-05-19T08:15:22.112Z,13.27
2023-05-19T08:17:50.429Z,11.40
2023-05-19T08:20:18.832Z,12.37
2023-05-19T08:22:47.112Z,11.90
2023-05-19T08:25:15.478Z,11.30
2023-05-19T08:27:43.949Z,12.90
2023-05-19T08:30:13.475Z,12.60
2023-05-19T08:32:43.493Z,12.43
2023-05-19T08:35:11.983Z,12.10
2023-05-19T08:37:40.264Z,12.87
2023-05-19T08:40:13.347Z,12.17
2023-05-19T08:42:41.600Z,12.10
2023-05-19T08:45:10.623Z,12.20
2023-05-19T08:47:39.288Z,11.80
2023-05-19T08:50:12.737Z,12.03
2023-05-19T08:52:52.869Z,12.90
2023-05-19T08:55:34.424Z,13.53
2023-05-19T08:58:04.420Z,12.10
2023-05-19T09:00:33.354Z,12.47
2023-05-19T09:03:17.353Z,12.07
2023-05-19T09:05:53.041Z,12.13
2023-05-19T09:08:22.711Z,12.47
2023-05-19T09:10:51.086Z,12.20
2023-05-19T09:13:19.640Z,12.00
2023-05-19T09:15:49.975Z,13.43
2023-05-19T09:18:18.508Z,11.17
2023-05-19T09:20:47.520Z,11.67
2023-05-19T09:23:19.031Z,12.10
2023-05-19T09:25:50.628Z,12.10
2023-05-19T09:28:30.691Z,11.50
2023-05-19T09:31:02.929Z,10.90
2023-05-19T09:33:31.667Z,11.27
2023-05-19T09:35:59.983Z,10.63
2023-05-19T09:38:29.858Z,10.87
2023-05-19T09:41:00.256Z,11.20
2023-05-19T09:43:30.019Z,11.07
2023-05-19T09:46:01.938Z,10.60
2023-05-19T09:48:30.602Z,10.70
2023-05-19T09:50:59.192Z,11.13
2023-05-19T09:53:27.801Z,10.60
2023-05-19T09:55:59.019Z,9.47
2023-05-19T09:58:28.124Z,10.77
2023-05-19T10:00:57.636Z,10.43
2023-05-19T10:03:27.540Z,10.90
2023-05-19T10:05:56.836Z,9.43
2023-05-19T10:08:26.725Z,9.83
2023-05-19T10:10:55.277Z,9.17
2023-05-19T10:13:26.707Z,10.93
2023-05-19T10:15:59.223Z,9.30
2023-05-19T10:18:29.668Z,9.10
2023-05-19T10:20:59.047Z,9.47
2023-05-19T10:23:27.701Z,10.33
2023-05-19T10:25:59.748Z,9.10
2023-05-19T10:28:36.123Z,10.10
2023-05-19T10:31:08.445Z,9.10
2023-05-19T10:33:54.417Z,8.70
2023-05-19T10:36:47.625Z,9.20
2023-05-19T10:39:20.318Z,9.57
2023-05-19T10:41:59.985Z,10.27
2023-05-19T10:44:42.255Z,9.13
2023-05-19T10:47:12.432Z,10.30
2023-05-19T10:49:41.607Z,9.80
2023-05-19T10:52:23.464Z,9.73
2023-05-19T10:54:54.796Z,8.87
2023-05-19T10:57:28.444Z,8.37
2023-05-19T11:00:00.735Z,9.17
2023-05-19T11:02:44.186Z,8.60
2023-05-19T11:05:14.726Z,9.37
2023-05-19T11:07:44.787Z,8.53
2023-05-19T11:10:13.775Z,9.10
2023-05-19T11:12:44.210Z,8.30
2023-05-19T11:15:16.087Z,8.13
2023-05-19T11:17:49.945Z,8.83
2023-05-19T11:20:26.248Z,8.40
2023-05-19T11:23:07.344Z,8.83
2023-05-19T11:25:48.196Z,7.80
2023-05-19T11:28:19.567Z,8.30
2023-05-19T11:30:52.132Z,8.60
2023-05-19T11:33:27.808Z,8.03
2023-05-19T11:35:59.009Z,8.40
2023-05-19T11:38:30.243Z,7.30
2023-05-19T11:40:59.072Z,8.33
2023-05-19T11:43:28.085Z,7.53
2023-05-19T11:45:57.906Z,7.97
2023-05-19T11:48:27.540Z,7.77
2023-05-19T11:50:56.973Z,7.80
2023-05-19T11:53:25.417Z,7.23
2023-05-19T11:55:53.770Z,7.93
2023-05-19T11:58:28.532Z,7.10
2023-05-19T12:00:58.266Z,7.83
2023-05-19T12:03:28.338Z,6.60
2023-05-19T12:05:56.992Z,7.30
2023-05-19T12:08:27.234Z,7.97
2023-05-19T12:10:56.275Z,7.23
2023-05-19T12:13:24.601Z,7.60
2023-05-19T12:15:53.560Z,7.43
2023-05-19T12:18:23.485Z,7.37
2023-05-19T12:20:52.004Z,8.23
2023-05-19T12:23:21.028Z,7.40
2023-05-19T12:25:50.659Z,6.83
2023-05-19T12:28:20.666Z,7.03
2023-05-19T12:30:52.488Z,6.93
2023-05-19T12:33:22.909Z,7.00
2023-05-19T12:35:51.863Z,7.27
2023-05-19T12:38:21.299Z,7.47
2023-05-19T12:40:51.062Z,7.30
2023-05-19T12:43:22.720Z,7.23
2023-05-19T12:45:51.103Z,6.70
2023-05-19T12:48:22.687Z,6.77
2023-05-19T12:50:54.011Z,7.37
2023-05-19T12:53:23.121Z,7.60
2023-05-19T12:55:54.139Z,7.37
2023-05-19T12:58:23.335Z,6.87
2023-05-19T13:00:52.894Z,6.70
2023-05-19T13:03:22.237Z,6.90
2023-05-19T13:05:52.602Z,6.90
2023-05-19T13:08:24.033Z,6.00
2023-05-19T13:10:52.731Z,6.43
2023-05-19T13:13:22.105Z,7.27
2023-05-19T13:15:50.496Z,7.73
2023-05-19T13:18:19.434Z,7.30
2023-05-19T13:20:50.277Z,7.33
2023-05-19T13:23:20.198Z,7.23
2023-05-19T13:25:48.444Z,7.27
2023-05-19T13:28:16.728Z,7.50
2023-05-19T13:30:45.348Z,7.23
2023-05-19T13:33:13.831Z,6.90
2023-05-19T13:35:42.556Z,6.80
2023-05-19T13:38:11.967Z,6.70
2023-05-19T13:40:41.748Z,7.20
2023-05-19T13:43:10.284Z,6.37
2023-05-19T13:45:39.331Z,6.73
2023-05-19T13:48:08.672Z,6.40
2023-05-19T13:50:36.960Z,6.90
2023-05-19T13:53:05.365Z,6.90
2023-05-19T13:55:34.046Z,7.20
2023-05-19T13:58:03.800Z,6.27
2023-05-19T14:00:33.256Z,5.90
2023-05-19T14:03:02.116Z,7.43
2023-05-19T14:05:31.225Z,6.33
2023-05-19T14:08:01.151Z,7.00
2023-05-19T14:10:29.749Z,6.60
2023-05-19T14:15:38.087Z,7.20
2023-05-19T14:18:07.164Z,6.90
2023-05-19T14:20:36.162Z,6.70
2023-05-19T14:23:04.708Z,6.90
2023-05-19T14:25:32.994Z,7.50
2023-05-19T14:28:01.455Z,6.93
2023-05-19T14:30:31.199Z,7.40
2023-05-19T14:32:59.514Z,6.23
2023-05-19T14:35:27.952Z,6.83
2023-05-19T14:37:56.228Z,6.80
2023-05-19T14:40:24.448Z,6.33
2023-05-19T14:42:52.747Z,6.23
2023-05-19T14:45:21.071Z,6.50
2023-05-19T14:47:50.842Z,5.97
2023-05-19T14:50:19.146Z,6.60
2023-05-19T14:52:47.438Z,7.57
2023-05-19T14:55:15.759Z,7.30
2023-05-19T14:57:45.483Z,7.20
2023-05-19T15:00:14.826Z,7.60
2023-05-19T15:02:43.180Z,6.80
2023-05-19T15:05:13.085Z,7.30
2023-05-19T15:07:41.302Z,6.97
2023-05-19T15:10:10.371Z,7.27
2023-05-19T15:12:38.959Z,7.17
2023-05-19T15:15:08.390Z,6.70
2023-05-19T15:17:36.792Z,7.43
2023-05-19T15:20:05.780Z,6.80
2023-05-19T15:22:35.732Z,6.60
2023-05-19T15:25:04.136Z,7.70
2023-05-19T15:27:32.468Z,7.93
2023-05-19T15:30:00.811Z,7.07
2023-05-19T15:32:29.276Z,8.03
2023-05-19T15:34:57.538Z,6.90
2023-05-19T15:37:25.832Z,7.13
2023-05-19T15:39:56.173Z,7.70
2023-05-19T15:42:24.540Z,7.20
2023-05-19T15:44:52.793Z,7.87
2023-05-19T15:47:21.104Z,7.80
2023-05-19T15:49:49.419Z,7.50
2023-05-19T15:52:17.736Z,7.50
2023-05-19T15:54:46.781Z,7.10
2023-05-19T15:57:16.424Z,8.00
2023-05-19T15:59:44.712Z,7.80
2023-05-19T16:02:13.245Z,7.90
2023-05-19T16:04:41.630Z,6.97
2023-05-19T16:07:09.889Z,6.80
2023-05-19T16:09:38.189Z,6.70
2023-05-19T16:12:07.024Z,7.23
2023-05-19T16:14:37.947Z,8.47
2023-05-19T16:17:11.483Z,7.00
2023-05-19T16:19:39.952Z,7.47
2023-05-19T16:22:08.303Z,7.27
2023-05-19T16:24:36.605Z,6.80
2023-05-19T16:27:05.544Z,7.50
2023-05-19T16:29:33.770Z,7.57
2023-05-19T16:32:03.652Z,7.87
2023-05-19T16:34:32.093Z,7.70
2023-05-19T16:37:01.579Z,6.60
2023-05-19T16:39:29.821Z,7.50
2023-05-19T16:41:58.146Z,8.20
2023-05-19T16:44:26.672Z,7.90
2023-05-19T16:46:54.915Z,7.50
2023-05-19T16:49:24.656Z,7.90
2023-05-19T16:51:54.212Z,7.67
2023-05-19T16:54:23.476Z,7.50
2023-05-19T16:56:52.422Z,7.33
2023-05-19T16:59:20.680Z,7.07
2023-05-19T17:01:49.105Z,6.90
2023-05-19T17:04:17.451Z,6.40
2023-05-19T17:06:47.653Z,7.60
2023-05-19T17:09:15.943Z,7.43
2023-05-19T17:11:44.238Z,6.90
2023-05-19T17:14:13.109Z,6.60
2023-05-19T17:16:41.503Z,7.33
2023-05-19T17:19:09.867Z,7.60
2023-05-19T17:21:38.284Z,6.70
2023-05-19T17:24:08.158Z,8.10
2023-05-19T17:26:36.481Z,8.27
2023-05-19T17:29:05.567Z,9.10
2023-05-19T17:31:33.983Z,8.40
2023-05-19T17:34:02.317Z,9.50
2023-05-19T17:36:31.067Z,8.20
2023-05-19T17:38:59.610Z,7.87
2023-05-19T17:41:29.268Z,8.53
2023-05-19T17:43:57.707Z,7.87
2023-05-19T17:46:26.018Z,7.60
2023-05-19T17:48:54.355Z,7.63
2023-05-19T17:51:23.353Z,8.07
2023-05-19T17:53:52.287Z,8.33
2023-05-19T17:56:22.665Z,7.50
2023-05-19T17:58:53.303Z,7.90
2023-05-19T18:01:24.235Z,7.13
2023-05-19T18:03:53.110Z,6.97
2023-05-19T18:06:22.119Z,7.90
2023-05-19T18:08:51.839Z,7.53
2023-05-19T18:11:21.520Z,7.30
2023-05-19T18:13:49.805Z,7.17
2023-05-19T18:16:19.513Z,7.60
2023-05-19T18:18:50.519Z,7.60
2023-05-19T18:21:19.216Z,7.90
2023-05-19T18:23:48.076Z,7.50
2023-05-19T18:26:17.463Z,7.77
2023-05-19T18:28:48.343Z,7.87
2023-05-19T18:31:20.079Z,7.47
2023-05-19T18:33:57.560Z,8.57
2023-05-19T18:36:25.843Z,8.13
2023-05-19T18:38:55.244Z,7.77
2023-05-19T18:41:23.526Z,7.80
2023-05-19T18:43:51.981Z,7.43
2023-05-19T18:46:20.403Z,7.90
2023-05-19T18:48:50.935Z,8.33
2023-05-19T18:51:21.475Z,7.13
2023-05-19T18:53:50.715Z,7.30
2023-05-19T18:56:24.842Z,8.03
2023-05-19T18:58:53.290Z,7.80
2023-05-19T19:01:21.695Z,7.13
2023-05-19T19:03:51.565Z,7.60
2023-05-19T19:06:20.799Z,8.60
2023-05-19T19:08:49.192Z,7.60
2023-05-19T19:11:17.418Z,8.30
2023-05-19T19:13:45.895Z,7.93
2023-05-19T19:16:14.171Z,7.60
2023-05-19T19:18:42.436Z,8.13
2023-05-19T19:21:12.143Z,7.60
2023-05-19T19:23:40.513Z,8.50
2023-05-19T19:26:09.651Z,7.77
2023-05-19T19:28:38.134Z,7.03
2023-05-19T19:31:06.418Z,7.50
2023-05-19T19:33:34.668Z,7.67
2023-05-19T19:36:04.105Z,7.73
2023-05-19T19:38:33.763Z,7.30
2023-05-19T19:41:02.074Z,7.17
2023-05-19T19:43:30.552Z,6.80
2023-05-19T19:46:02.958Z,8.77
2023-05-19T19:48:31.634Z,7.33
2023-05-19T19:51:00.222Z,7.30
2023-05-19T19:53:28.492Z,7.67
2023-05-19T19:56:02.921Z,7.27
2023-05-19T19:58:31.368Z,6.70
2023-05-19T20:01:00.837Z,6.73
2023-05-19T20:03:29.641Z,6.47
2023-05-19T20:05:58.348Z,6.73
2023-05-19T20:08:27.037Z,7.23
2023-05-19T20:10:55.490Z,6.93
2023-05-19T20:13:25.231Z,7.20
2023-05-19T20:15:53.504Z,6.90
2023-05-19T20:18:21.825Z,7.40
2023-05-19T20:20:50.049Z,6.93
2023-05-19T20:23:18.577Z,7.40
2023-05-19T20:26:02.381Z,7.23
2023-05-19T20:28:32.467Z,7.70
2023-05-19T20:31:00.918Z,7.70
2023-05-19T20:33:29.292Z,6.90
2023-05-19T20:35:57.761Z,6.60
2023-05-19T20:38:26.085Z,7.97
2023-05-19T20:40:55.160Z,7.50
2023-05-19T20:43:23.460Z,7.60
2023-05-19T20:45:53.369Z,7.80
2023-05-19T20:48:21.726Z,7.50
2023-05-19T20:50:50.221Z,7.03
2023-05-19T20:53:19.537Z,7.23
2023-05-19T20:55:47.805Z,6.50
2023-05-19T20:58:16.097Z,6.63
2023-05-19T21:00:44.718Z,6.40
2023-05-19T21:03:14.490Z,6.57
2023-05-19T21:05:42.935Z,6.33
2023-05-19T21:08:12.959Z,6.77
2023-05-19T21:10:41.720Z,6.33
2023-05-19T21:13:10.014Z,6.30
2023-05-19T21:15:38.503Z,5.90
2023-05-19T21:18:07.876Z,6.70
2023-05-19T21:20:37.641Z,6.70
2023-05-19T21:23:06.066Z,6.10
2023-05-19T21:25:34.526Z,6.60
2023-05-19T21:28:03.431Z,6.27
2023-05-19T21:30:31.889Z,7.30
2023-05-19T21:33:00.610Z,6.30
2023-05-19T21:35:28.929Z,7.00
2023-05-19T21:38:03.949Z,5.77
2023-05-19T21:40:37.853Z,6.60
2023-05-19T21:43:06.789Z,6.50
2023-05-19T21:45:35.282Z,6.90
2023-05-19T21:48:03.657Z,6.83
2023-05-19T21:50:32.135Z,7.20
2023-05-19T21:53:02.786Z,6.20
2023-05-19T21:55:31.276Z,6.30
2023-05-19T21:58:00.982Z,6.40
2023-05-19T22:00:30.719Z,6.43
2023-05-19T22:02:59.502Z,7.37
2023-05-19T22:05:27.876Z,7.13
2023-05-19T22:07:56.227Z,5.97
2023-05-19T22:10:26.136Z,7.20
2023-05-19T22:12:54.520Z,7.83
2023-05-19T22:15:22.963Z,7.00
2023-05-19T22:17:51.659Z,6.63
2023-05-19T22:20:20.156Z,6.80
2023-05-19T22:22:48.487Z,6.50
2023-05-19T22:25:17.031Z,6.43
2023-05-19T22:27:46.884Z,6.17
2023-05-19T22:30:15.778Z,6.70
2023-05-19T22:32:44.148Z,6.93
2023-05-19T22:35:13.324Z,6.63
2023-05-19T22:37:41.634Z,7.03
2023-05-19T22:40:10.879Z,6.53
2023-05-19T22:42:39.199Z,6.53
2023-05-19T22:45:10.711Z,6.80
2023-05-19T22:47:39.095Z,7.10
2023-05-19T22:50:10.185Z,7.23
2023-05-19T22:52:38.509Z,6.90
2023-05-19T22:55:07.825Z,6.70
2023-05-19T22:57:36.308Z,6.90
2023-05-19T23:00:05.053Z,7.60
2023-05-19T23:02:34.786Z,6.60
2023-05-19T23:05:03.307Z,6.80
2023-05-19T23:07:31.654Z,5.57
2023-05-19T23:10:00.085Z,6.40
2023-05-19T23:12:28.471Z,7.57
2023-05-19T23:14:56.816Z,7.03
2023-05-19T23:17:25.149Z,7.50
2023-05-19T23:19:55.120Z,6.80
2023-05-19T23:22:23.423Z,7.47
2023-05-19T23:24:51.696Z,6.90
2023-05-19T23:27:19.993Z,7.80
2023-05-19T23:29:52.568Z,7.03
2023-05-19T23:32:20.909Z,7.23
2023-05-19T23:34:49.663Z,7.80
2023-05-19T23:37:19.392Z,7.40
2023-05-19T23:39:47.826Z,6.80
2023-05-19T23:42:16.205Z,7.97
2023-05-19T23:44:44.507Z,7.50
2023-05-19T23:47:12.909Z,8.10
2023-05-19T23:49:41.236Z,8.03
2023-05-19T23:52:09.518Z,8.17
2023-05-19T23:54:39.167Z,7.50
2023-05-19T23:57:09.117Z,7.70
2023-05-19T23:59:37.564Z,7.60
